Time;durP1;ratioP1;P1;durP2;ratioP2;P2;SDS_P1;SDS_P2;PMS_P1;PMS_P2;Temp;Humidity;BMP_temperature;BMP_pressure;BME280_temperature;BME280_humidity;BME280_pressure;Samples;Min_cycle;Max_cycle;Signal;HPM_P1;HPM_P2
2021/05/03 00:01:47;;;;;;;19.65;17.67;;;;;;;6.26;79.15;96297.07;1721899;82;21104;-79
2021/05/03 00:04:13;;;;;;;21.12;18.98;;;;;;;6.28;79.34;96293.85;1737753;82;22034;-79
2021/05/03 00:06:39;;;;;;;19.82;17.50;;;;;;;6.29;79.45;96299.34;1712056;82;21113;-80
2021/05/03 00:09:06;;;;;;;18.32;15.20;;;;;;;6.28;79.52;96304.17;1732155;82;21091;-79
2021/05/03 00:11:32;;;;;;;18.12;14.50;;;;;;;6.29;79.53;96309.17;1709244;82;21110;-79
2021/05/03 00:13:58;;;;;;;18.55;16.27;;;;;;;6.32;79.53;96308.85;1708116;83;21341;-79
2021/05/03 00:16:24;;;;;;;19.55;17.48;;;;;;;6.35;79.32;96309.53;1709370;83;21427;-79
2021/05/03 00:18:50;;;;;;;16.07;14.43;;;;;;;6.34;79.43;96319.02;1710784;83;21284;-79
2021/05/03 00:21:17;;;;;;;17.62;15.78;;;;;;;6.33;79.44;96315.62;1709908;83;21401;-79
2021/05/03 00:23:43;;;;;;;18.92;16.55;;;;;;;6.29;79.52;96322.08;1710144;83;21327;-79
2021/05/03 00:26:11;;;;;;;21.25;17.12;;;;;;;6.28;79.63;96320.46;1703795;83;21122;-79
2021/05/03 00:28:41;;;;;;;17.45;15.13;;;;;;;6.28;79.64;96309.33;1712781;83;21114;-79
2021/05/03 00:31:07;;;;;;;18.75;16.62;;;;;;;6.26;79.76;96322.88;1710265;83;21236;-79
2021/05/03 00:33:33;;;;;;;21.82;18.37;;;;;;;6.25;79.83;96316.91;1709424;83;21153;-79
2021/05/03 00:35:59;;;;;;;17.95;15.00;;;;;;;6.22;79.88;96324.97;1710554;83;21162;-79
2021/05/03 00:38:25;;;;;;;14.13;11.83;;;;;;;6.19;79.96;96330.44;1699839;83;21078;-79
2021/05/03 00:40:52;;;;;;;18.10;15.58;;;;;;;6.11;79.93;96334.75;1685876;83;21140;-79
2021/05/03 00:43:19;;;;;;;13.43;11.85;;;;;;;6.06;80.13;96343.44;1761517;80;21138;-79
2021/05/03 00:45:47;;;;;;;11.65;9.90;;;;;;;6.04;80.22;96338.92;1756683;80;21415;-79
2021/05/03 00:48:13;;;;;;;12.85;10.38;;;;;;;5.93;80.09;96344.66;1755061;80;21113;-79
2021/05/03 00:50:39;;;;;;;12.40;11.10;;;;;;;5.94;80.25;96354.02;1761443;80;21096;-79
2021/05/03 00:53:05;;;;;;;11.20;9.05;;;;;;;5.91;80.40;96362.55;1758971;80;21227;-80
2021/05/03 00:55:32;;;;;;;10.58;9.48;;;;;;;5.89;80.60;96355.41;1763277;80;22056;-79
2021/05/03 00:57:59;;;;;;;11.35;10.20;;;;;;;5.83;80.76;96351.66;1759952;80;21156;-79
2021/05/03 01:00:27;;;;;;;13.93;10.60;;;;;;;5.81;80.56;96351.00;1759638;80;21431;-80
2021/05/03 01:02:53;;;;;;;12.47;10.85;;;;;;;5.80;80.56;96350.68;1758889;80;21239;-80
2021/05/03 01:05:21;;;;;;;10.55;9.45;;;;;;;5.83;80.74;96358.59;1760550;80;21158;-79
2021/05/03 01:07:47;;;;;;;11.00;9.28;;;;;;;5.82;80.87;96364.22;1759020;80;21140;-79
2021/05/03 01:10:14;;;;;;;11.63;10.38;;;;;;;5.81;80.94;96363.90;1756193;80;21162;-79
2021/05/03 01:12:41;;;;;;;15.55;12.23;;;;;;;5.80;81.00;96362.77;1755696;80;21126;-79
2021/05/03 01:15:10;;;;;;;15.48;12.95;;;;;;;5.78;81.14;96356.47;1756598;80;21420;-80
2021/05/03 01:17:37;;;;;;;13.88;11.90;;;;;;;5.80;81.17;96356.31;1760268;80;21103;-80
2021/05/03 01:20:11;;;;;;;11.70;9.53;;;;;;;5.87;81.20;96358.63;1760393;80;21114;-79
2021/05/03 01:22:37;;;;;;;10.23;8.90;;;;;;;5.84;81.01;96357.14;1756966;80;21122;-79
2021/05/03 01:25:06;;;;;;;12.58;11.15;;;;;;;5.83;81.18;96356.01;1758885;80;21118;-80
2021/05/03 01:27:32;;;;;;;14.85;13.35;;;;;;;5.86;81.24;96351.86;1760437;80;21744;-79
2021/05/03 01:29:58;;;;;;;15.75;14.15;;;;;;;5.83;81.25;96363.27;1763756;80;21138;-80
2021/05/03 01:32:24;;;;;;;17.45;15.65;;;;;;;5.80;81.36;96362.28;1763311;80;21093;-79
2021/05/03 01:34:50;;;;;;;19.15;17.15;;;;;;;5.80;81.58;96353.73;1751983;80;21089;-79
2021/05/03 01:37:16;;;;;;;17.15;15.35;;;;;;;5.82;81.82;96368.58;1765830;80;21110;-80
2021/05/03 01:39:42;;;;;;;13.32;11.93;;;;;;;5.82;81.82;96368.58;1772993;80;21091;-80
2021/05/03 01:42:08;;;;;;;14.55;12.98;;;;;;;5.87;81.69;96367.66;1764795;80;21098;-80
2021/05/03 01:44:34;;;;;;;13.55;12.15;;;;;;;5.86;81.69;96362.17;1780896;80;21081;-80
2021/05/03 01:47:00;;;;;;;14.93;13.32;;;;;;;5.88;81.65;96374.43;1774563;80;21137;-81
2021/05/03 01:49:26;;;;;;;16.37;14.68;;;;;;;5.89;81.79;96367.02;1769126;80;21150;-80
2021/05/03 01:51:53;;;;;;;15.95;14.28;;;;;;;5.89;82.00;96369.59;1769448;80;21113;-80
2021/05/03 01:54:19;;;;;;;17.00;15.30;;;;;;;5.85;82.00;96378.09;1765160;80;21118;-81
2021/05/03 01:56:46;;;;;;;15.30;13.70;;;;;;;5.82;82.04;96380.17;1768021;80;21244;-80
2021/05/03 01:59:12;;;;;;;15.55;13.30;;;;;;;5.80;82.25;96376.47;1766010;80;21073;-80
2021/05/03 02:01:39;;;;;;;15.13;13.58;;;;;;;5.81;82.20;96378.56;1768301;80;21136;-80
2021/05/03 02:04:07;;;;;;;16.80;15.10;;;;;;;5.82;82.26;96368.09;1766702;80;21118;-80
2021/05/03 02:06:38;;;;;;;19.50;17.67;;;;;;;5.85;82.29;96378.09;1764502;80;21110;-80
2021/05/03 02:09:09;;;;;;;16.37;14.65;;;;;;;5.87;82.34;96377.97;1763975;80;21102;-80
2021/05/03 02:11:35;;;;;;;17.80;15.95;;;;;;;5.83;82.26;96383.08;1766376;80;21119;-80
2021/05/03 02:14:01;;;;;;;16.70;14.93;;;;;;;5.79;82.26;96386.93;1768732;80;21400;-80
2021/05/03 02:16:27;;;;;;;13.70;12.30;;;;;;;5.83;82.46;96384.38;1762818;80;21110;-80
2021/05/03 02:18:53;;;;;;;16.65;14.95;;;;;;;5.84;82.38;96397.59;1769828;80;21140;-80
2021/05/03 02:21:19;;;;;;;16.15;14.63;;;;;;;5.84;82.28;96397.11;1761987;80;21106;-80
2021/05/03 02:23:45;;;;;;;14.78;13.38;;;;;;;5.82;82.36;96398.23;1762835;80;21085;-80
2021/05/03 02:26:11;;;;;;;14.70;13.20;;;;;;;5.79;82.42;96394.67;1769288;80;21136;-81
2021/05/03 02:28:37;;;;;;;15.13;13.62;;;;;;;5.85;82.53;96396.63;1763916;80;21126;-80
2021/05/03 02:31:03;;;;;;;13.40;12.10;;;;;;;5.87;82.62;96395.55;1766123;80;21135;-80
2021/05/03 02:33:29;;;;;;;11.57;10.38;;;;;;;5.89;82.58;96403.93;1761410;80;21114;-80
2021/05/03 02:35:55;;;;;;;12.65;11.45;;;;;;;5.92;82.66;96406.23;1769267;80;21170;-81
2021/05/03 02:38:21;;;;;;;12.60;11.40;;;;;;;5.95;82.51;96404.63;1763023;80;21216;-81
2021/05/03 02:40:47;;;;;;;14.38;12.98;;;;;;;5.98;82.40;96404.80;1757914;80;21127;-80
2021/05/03 02:43:13;;;;;;;15.48;14.07;;;;;;;5.99;82.51;96402.07;1766558;80;21259;-81
2021/05/03 02:45:39;;;;;;;18.23;16.40;;;;;;;6.00;82.53;96404.98;1761985;80;21114;-81
2021/05/03 02:48:06;;;;;;;15.45;13.83;;;;;;;6.01;82.53;96404.49;1755557;80;21095;-80
2021/05/03 02:50:32;;;;;;;13.48;12.18;;;;;;;6.03;82.48;96400.50;1733620;82;21135;-80
2021/05/03 02:52:58;;;;;;;15.90;14.40;;;;;;;6.07;82.46;96404.38;1766769;80;21333;-80
2021/05/03 02:55:24;;;;;;;18.42;16.52;;;;;;;6.05;82.29;96399.86;1766937;80;21149;-80
2021/05/03 02:57:50;;;;;;;16.52;14.93;;;;;;;6.05;82.47;96404.54;1765041;80;21213;-80
2021/05/03 03:00:30;;;;;;;18.55;16.52;;;;;;;6.03;82.44;96409.53;1768269;80;21157;-80
2021/05/03 03:02:56;;;;;;;15.43;13.80;;;;;;;5.99;82.40;96409.00;1759863;80;21101;-80
2021/05/03 03:05:23;;;;;;;13.43;12.13;;;;;;;5.97;82.47;96415.60;1748869;80;21138;-80
2021/05/03 03:07:50;;;;;;;13.05;11.10;;;;;;;5.95;82.39;96415.43;1763965;80;21110;-80
2021/05/03 03:10:18;;;;;;;12.05;10.85;;;;;;;5.95;82.41;96416.72;1768031;80;21233;-80
2021/05/03 03:12:44;;;;;;;13.20;11.95;;;;;;;5.95;82.39;96418.02;1765615;80;21123;-80
2021/05/03 03:15:12;;;;;;;15.00;13.53;;;;;;;5.94;82.29;96424.13;1772673;80;21062;-80
2021/05/03 03:17:38;;;;;;;16.62;15.03;;;;;;;5.96;82.41;96432.04;1759239;80;21232;-80
2021/05/03 03:20:05;;;;;;;20.32;18.15;;;;;;;5.95;82.51;96429.13;1766723;80;21235;-80
2021/05/03 03:22:33;;;;;;;16.32;14.63;;;;;;;5.89;82.43;96432.30;1761695;80;21438;-80
2021/05/03 03:25:00;;;;;;;14.53;13.05;;;;;;;5.91;82.46;96436.85;1759910;80;21093;-80
2021/05/03 03:27:26;;;;;;;14.85;13.43;;;;;;;5.93;82.50;96443.95;1762227;80;21091;-80
2021/05/03 03:29:52;;;;;;;17.73;15.93;;;;;;;5.94;82.40;96452.02;1759352;80;21224;-80
2021/05/03 03:32:18;;;;;;;15.80;14.20;;;;;;;5.90;82.20;96455.87;1755548;80;21105;-80
2021/05/03 03:34:44;;;;;;;16.97;15.25;;;;;;;5.89;82.05;96462.44;1766606;80;21145;-80
2021/05/03 03:37:10;;;;;;;16.97;15.18;;;;;;;5.87;82.06;96467.75;1765135;80;21257;-81
2021/05/03 03:39:36;;;;;;;15.55;13.90;;;;;;;5.84;82.09;96469.31;1762082;80;21113;-80
2021/05/03 03:42:02;;;;;;;14.65;13.03;;;;;;;5.86;82.08;96473.86;1759555;80;21250;-80
2021/05/03 03:44:28;;;;;;;13.35;12.05;;;;;;;5.88;81.96;96478.88;1761608;80;21074;-80
2021/05/03 03:46:54;;;;;;;12.90;11.60;;;;;;;5.93;81.85;96475.38;1764880;80;21124;-81
2021/05/03 03:49:19;;;;;;;14.85;13.32;;;;;;;5.94;81.81;96471.36;1764437;80;21108;-80
2021/05/03 03:51:45;;;;;;;16.73;14.98;;;;;;;5.97;81.84;96471.53;1767383;80;21102;-80
2021/05/03 03:54:11;;;;;;;18.37;15.98;;;;;;;5.98;81.76;96475.25;1757835;80;21102;-81
2021/05/03 03:56:37;;;;;;;15.20;13.50;;;;;;;5.98;81.81;96475.25;1762148;80;21354;-81
2021/05/03 03:59:06;;;;;;;12.90;11.50;;;;;;;5.98;81.68;96474.44;1758887;80;21353;-81
2021/05/03 04:01:32;;;;;;;14.28;12.82;;;;;;;5.99;81.48;96471.70;1762410;80;21095;-81
2021/05/03 04:04:03;;;;;;;14.93;13.43;;;;;;;6.02;81.55;96475.78;1764465;80;21128;-81
2021/05/03 04:09:23;;;;;;;15.25;13.75;;;;;;;5.98;81.48;96487.34;1751217;80;21109;-81
2021/05/03 04:12:04;;;;;;;15.40;13.80;;;;;;;5.95;81.39;96482.00;1753743;80;21134;-81
2021/05/03 04:27:35;;;;;;;13.00;11.60;;;;;;;5.64;80.66;96493.65;1762937;80;21241;-80
2021/05/03 04:30:01;;;;;;;13.45;11.53;;;;;;;5.59;80.81;96501.83;1762080;80;21156;-81
2021/05/03 04:32:27;;;;;;;11.33;10.13;;;;;;;5.56;80.80;96498.75;1761293;80;21118;-81
2021/05/03 04:34:53;;;;;;;10.40;9.23;;;;;;;5.56;81.00;96500.84;1759536;80;21115;-80
2021/05/03 04:37:19;;;;;;;10.08;9.08;;;;;;;5.58;81.11;96503.27;1760692;80;21078;-80
2021/05/03 04:39:48;;;;;;;12.93;10.75;;;;;;;5.60;81.24;96502.64;1765911;80;21113;-80
2021/05/03 04:42:14;;;;;;;12.03;10.53;;;;;;;5.60;81.28;96508.61;1769735;80;21653;-81
2021/05/03 04:44:40;;;;;;;12.75;10.25;;;;;;;5.62;81.42;96517.00;1768264;80;21247;-80
2021/05/03 04:47:06;;;;;;;11.55;10.35;;;;;;;5.63;81.41;96522.96;1768358;80;21232;-80
2021/05/03 04:49:32;;;;;;;10.60;9.05;;;;;;;5.65;81.43;96522.33;1765383;80;21246;-80
2021/05/03 04:51:58;;;;;;;8.83;7.75;;;;;;;5.60;80.71;96525.84;1765821;80;21121;-80
2021/05/03 04:54:24;;;;;;;10.53;9.48;;;;;;;5.57;80.90;96524.85;1766732;80;21062;-80
2021/05/03 04:56:50;;;;;;;8.55;7.72;;;;;;;5.56;80.98;96525.81;1769529;80;21109;-80
2021/05/03 04:59:16;;;;;;;9.40;8.40;;;;;;;5.60;81.14;96515.53;1766494;80;21136;-81
2021/05/03 05:01:42;;;;;;;10.85;9.03;;;;;;;5.59;81.35;96518.59;1768402;80;21291;-81
2021/05/03 05:04:11;;;;;;;10.68;9.45;;;;;;;5.60;81.21;96521.98;1771273;80;21110;-82
2021/05/03 05:06:37;;;;;;;9.43;8.33;;;;;;;5.66;81.44;96520.09;1770315;80;21090;-81
2021/05/03 05:09:05;;;;;;;9.15;8.10;;;;;;;5.73;81.15;96525.00;1769327;80;21113;-80
2021/05/03 05:11:31;;;;;;;9.43;8.43;;;;;;;5.77;81.07;96521.64;1777653;80;21305;-80
2021/05/03 05:13:57;;;;;;;9.80;8.80;;;;;;;5.82;81.08;96529.25;1785123;80;21208;-80
2021/05/03 05:16:24;;;;;;;9.38;8.33;;;;;;;5.94;81.67;96528.58;1779763;80;21154;-80
2021/05/03 05:18:50;;;;;;;8.08;7.20;;;;;;;6.07;81.65;96525.14;1778168;80;21074;-81
2021/05/03 05:21:16;;;;;;;7.67;6.87;;;;;;;6.17;81.49;96526.33;1777976;80;21125;-80
2021/05/03 05:23:42;;;;;;;7.53;6.72;;;;;;;6.25;80.37;96522.53;1761010;80;21116;-80
2021/05/03 05:26:10;;;;;;;9.88;8.98;;;;;;;6.36;80.86;96524.87;1776258;80;21068;-80
2021/05/03 05:28:36;;;;;;;9.70;8.70;;;;;;;6.46;80.67;96526.03;1773376;80;21245;-79
2021/05/03 05:31:03;;;;;;;9.90;9.00;;;;;;;6.55;80.71;96530.30;1767483;80;21103;-80
2021/05/03 05:33:31;;;;;;;7.45;6.75;;;;;;;6.64;80.66;96531.95;1767323;80;21225;-82
2021/05/03 05:35:57;;;;;;;9.05;8.15;;;;;;;6.74;79.83;96531.36;1784802;80;21135;-80
2021/05/03 05:38:23;;;;;;;7.37;6.65;;;;;;;6.79;80.02;96542.03;1780585;80;21113;-80
2021/05/03 05:40:49;;;;;;;7.15;6.45;;;;;;;6.86;79.86;96546.12;1782039;80;21142;-80
2021/05/03 05:43:15;;;;;;;8.33;7.60;;;;;;;6.82;78.63;96552.53;1785080;80;21316;-81
2021/05/03 05:45:41;;;;;;;7.97;7.28;;;;;;;6.71;78.61;96555.40;1769018;80;21112;-80
2021/05/03 05:48:08;;;;;;;8.50;7.70;;;;;;;6.67;79.01;96557.48;1768499;80;21075;-79
2021/05/03 05:50:34;;;;;;;9.70;8.70;;;;;;;6.67;79.06;96556.64;1775580;80;21083;-80
2021/05/03 05:53:00;;;;;;;9.30;8.45;;;;;;;6.62;78.88;96557.92;1776606;80;21117;-79
2021/05/03 05:55:26;;;;;;;9.38;8.43;;;;;;;6.58;78.41;96563.06;1775035;80;21083;-79
2021/05/03 05:57:52;;;;;;;9.18;8.33;;;;;;;6.52;78.31;96562.39;1779497;80;21213;-79
2021/05/03 06:00:19;;;;;;;9.40;8.50;;;;;;;6.49;78.53;96563.97;1770844;80;21344;-80
2021/05/03 06:02:49;;;;;;;9.05;8.15;;;;;;;6.43;78.41;96556.84;1788340;80;21090;-79
2021/05/03 06:05:15;;;;;;;9.30;8.43;;;;;;;6.37;78.54;96558.74;1774827;80;21086;-80
2021/05/03 06:07:42;;;;;;;11.00;10.00;;;;;;;6.35;78.95;96549.05;1784806;80;21110;-81
2021/05/03 06:10:09;;;;;;;10.90;9.90;;;;;;;6.32;78.67;96554.50;1765914;80;21125;-80
2021/05/03 06:12:34;;;;;;;10.28;9.28;;;;;;;6.30;78.73;96553.36;1780888;80;21651;-80
2021/05/03 06:15:00;;;;;;;9.43;8.53;;;;;;;6.37;79.14;96557.45;1782489;80;21115;-79
2021/05/03 06:17:26;;;;;;;9.05;8.15;;;;;;;6.26;78.73;96533.98;1778823;80;21224;-79
2021/05/03 06:19:53;;;;;;;9.45;8.55;;;;;;;6.43;79.11;96556.84;1736842;80;21130;-79
2021/05/03 06:22:19;;;;;;;11.45;10.25;;;;;;;6.46;78.84;96557.02;1786057;80;21304;-79
2021/05/03 06:24:45;;;;;;;11.20;10.15;;;;;;;6.41;78.82;96565.70;1764584;80;21335;-80
2021/05/03 06:27:11;;;;;;;11.08;10.08;;;;;;;6.34;79.04;96562.89;1771793;80;21112;-79
2021/05/03 06:29:38;;;;;;;13.30;11.90;;;;;;;6.45;78.92;96583.79;1771373;80;21135;-81
2021/05/03 06:32:05;;;;;;;14.18;12.68;;;;;;;6.53;79.00;96584.67;1758330;80;21432;-81
2021/05/03 06:34:31;;;;;;;15.50;14.00;;;;;;;6.63;79.16;96584.06;1765852;80;21102;-81
2021/05/03 06:37:00;;;;;;;14.75;13.25;;;;;;;6.70;79.01;96586.06;1748495;80;21110;-79
2021/05/03 06:39:26;;;;;;;14.53;13.13;;;;;;;6.73;78.86;96590.91;1765947;80;21234;-80
2021/05/03 06:41:54;;;;;;;14.23;11.93;;;;;;;6.73;78.57;96598.66;1761489;80;21240;-81
2021/05/03 06:44:23;;;;;;;16.82;15.15;;;;;;;6.75;78.31;96601.41;1765952;80;21207;-81
2021/05/03 06:46:49;;;;;;;14.13;11.80;;;;;;;6.69;77.62;96598.16;1769718;80;21154;-82
2021/05/03 06:49:15;;;;;;;14.05;12.63;;;;;;;6.65;77.36;96602.47;1730584;80;21158;-80
2021/05/03 06:51:45;;;;;;;17.12;15.53;;;;;;;6.62;77.68;96606.98;1763570;80;21215;-81
2021/05/03 06:54:15;;;;;;;13.50;12.20;;;;;;;6.62;77.90;96610.05;1745498;81;21075;-80
2021/05/03 06:56:45;;;;;;;14.45;12.95;;;;;;;6.64;77.25;96611.98;1741405;81;21143;-84
2021/05/03 06:59:15;;;;;;;16.60;14.68;;;;;;;6.58;77.14;96619.87;1760630;80;21104;-82
2021/05/03 07:01:41;;;;;;;14.60;13.20;;;;;;;6.55;77.50;96617.59;1764790;80;21087;-80
2021/05/03 07:04:11;;;;;;;12.93;11.63;;;;;;;6.55;77.78;96620.17;1770877;80;21119;-82
2021/05/03 07:06:37;;;;;;;12.88;11.48;;;;;;;6.58;77.56;96626.32;1732803;81;21127;-81
2021/05/03 07:09:08;;;;;;;28.95;24.70;;;;;;;6.62;77.28;96625.05;1755227;80;21536;-81
2021/05/03 07:11:31;;;;;;;9.90;8.93;;;;;;;6.63;77.11;96624.09;1767345;80;21209;-81
2021/05/03 07:13:57;;;;;;;8.03;7.22;;;;;;;6.63;76.38;96628.44;1754178;80;21298;-81
2021/05/03 07:16:23;;;;;;;9.85;8.95;;;;;;;6.63;76.07;96626.67;1769134;80;21132;-81
2021/05/03 07:18:49;;;;;;;11.43;9.73;;;;;;;6.61;75.17;96632.95;1764729;80;21061;-81
2021/05/03 07:21:15;;;;;;;10.68;9.58;;;;;;;6.63;75.93;96629.73;1754750;80;21159;-79
2021/05/03 07:23:41;;;;;;;6.78;6.08;;;;;;;6.71;75.82;96630.28;1742887;81;21102;-82
2021/05/03 07:26:09;;;;;;;7.40;6.80;;;;;;;6.79;74.88;96633.72;1765949;80;21096;-79
2021/05/03 07:28:35;;;;;;;7.85;6.17;;;;;;;6.91;73.98;96639.45;1712957;82;21142;-80
2021/05/03 07:31:02;;;;;;;8.13;6.47;;;;;;;6.97;74.21;96636.24;1757339;80;21130;-80
2021/05/03 07:33:28;;;;;;;7.45;6.67;;;;;;;7.01;74.11;96644.04;1709362;82;21247;-80
2021/05/03 07:35:54;;;;;;;7.47;6.78;;;;;;;7.05;73.53;96645.34;1777755;80;21131;-81
2021/05/03 07:38:20;;;;;;;6.50;5.83;;;;;;;7.13;74.16;96646.67;1700563;82;21148;-81
2021/05/03 07:40:46;;;;;;;7.05;4.97;;;;;;;7.16;73.11;96641.22;1770432;80;21109;-81
2021/05/03 07:43:13;;;;;;;7.65;6.25;;;;;;;7.21;72.65;96644.14;1746064;81;21130;-81
2021/05/03 07:45:39;;;;;;;7.53;5.40;;;;;;;7.22;72.43;96641.88;1737194;81;21138;-81
2021/05/03 07:48:05;;;;;;;4.87;4.37;;;;;;;7.22;72.47;96645.76;1738091;81;21079;-81
2021/05/03 07:50:31;;;;;;;6.33;5.47;;;;;;;7.16;71.45;96644.28;1749789;81;21134;-81
2021/05/03 07:52:57;;;;;;;5.85;5.00;;;;;;;7.03;72.12;96652.45;1730151;81;21157;-81
2021/05/03 07:55:24;;;;;;;4.45;4.05;;;;;;;6.93;71.44;96658.19;1743076;81;21332;-81
2021/05/03 07:57:51;;;;;;;5.00;4.50;;;;;;;6.82;70.84;96663.59;1733926;81;21336;-80
2021/05/03 08:00:18;;;;;;;5.95;5.33;;;;;;;6.77;72.12;96669.22;1734429;81;21127;-80
2021/05/03 08:02:44;;;;;;;6.90;6.20;;;;;;;6.81;72.01;96658.91;1742807;81;21822;-80
2021/05/03 08:05:11;;;;;;;6.78;6.10;;;;;;;6.88;72.50;96671.56;1732207;81;21117;-80
2021/05/03 08:07:38;;;;;;;7.17;6.47;;;;;;;7.07;73.35;96669.25;1691104;83;21358;-80
2021/05/03 08:10:06;;;;;;;6.85;6.08;;;;;;;7.23;72.96;96672.41;1742944;81;21157;-80
2021/05/03 08:12:32;;;;;;;8.45;6.85;;;;;;;7.34;72.03;96677.81;1731103;81;21119;-82
2021/05/03 08:15:03;;;;;;;10.72;7.25;;;;;;;7.51;72.90;96667.87;1749124;81;21075;-81
2021/05/03 08:17:26;;;;;;;9.03;7.75;;;;;;;7.83;72.86;96675.75;1741742;81;21159;-81
2021/05/03 08:19:52;;;;;;;11.08;9.93;;;;;;;8.02;73.58;96674.66;1734050;81;21374;-81
2021/05/03 08:22:18;;;;;;;8.43;6.25;;;;;;;8.29;73.50;96675.33;1752656;81;21236;-81
2021/05/03 08:24:44;;;;;;;10.05;8.43;;;;;;;8.43;70.51;96673.44;1752794;81;21717;-80
2021/05/03 08:27:10;;;;;;;8.35;7.47;;;;;;;8.34;71.13;96671.83;1743649;81;21118;-80
2021/05/03 08:29:37;;;;;;;9.95;8.83;;;;;;;8.34;70.99;96679.59;1743640;81;21158;-82
2021/05/03 08:32:04;;;;;;;10.32;9.28;;;;;;;8.34;71.27;96679.59;1748127;80;21223;-81
2021/05/03 08:34:30;;;;;;;9.60;8.60;;;;;;;8.38;71.39;96677.81;1740679;81;21126;-80
2021/05/03 08:36:56;;;;;;;8.45;7.75;;;;;;;8.42;70.20;96686.06;1741990;81;21684;-81
2021/05/03 08:39:25;;;;;;;7.67;6.97;;;;;;;8.38;69.98;96676.52;1736059;81;21149;-82
2021/05/03 08:41:56;;;;;;;10.28;9.28;;;;;;;8.42;68.78;96684.77;1717240;82;21114;-82
2021/05/03 08:44:21;;;;;;;7.58;5.80;;;;;;;8.39;69.79;96696.75;1739942;81;21158;-81
2021/05/03 08:46:47;;;;;;;8.10;5.60;;;;;;;8.30;68.37;96693.33;1744987;81;21109;-81
2021/05/03 08:52:16;;;;;;;5.70;5.20;;;;;;;7.96;68.72;96695.97;1772202;79;22993;-80
2021/05/03 08:54:41;;;;;;;6.70;5.20;;;;;;;7.77;68.44;96706.10;1737935;80;21165;-80
2021/05/03 08:57:09;;;;;;;5.65;5.05;;;;;;;7.64;68.36;96709.59;1750753;80;21082;-80
2021/05/03 09:02:17;;;;;;;6.10;5.50;;;;;;;7.40;69.74;96709.02;1831627;77;22125;-80
2021/05/03 09:04:43;;;;;;;6.67;5.85;;;;;;;7.36;70.14;96712.88;1818185;77;21551;-81
2021/05/03 09:07:17;;;;;;;9.50;7.80;;;;;;;7.35;70.35;96709.16;1810146;77;21213;-80
2021/05/03 09:09:45;;;;;;;17.62;11.78;;;;;;;7.38;71.20;96711.43;1813074;78;21119;-80
2021/05/03 09:12:17;;;;;;;11.18;8.73;;;;;;;7.41;71.49;96705.95;1807228;78;21111;-80
2021/05/03 09:14:55;;;;;;;14.25;10.93;;;;;;;7.43;71.68;96711.77;1796674;77;21085;-80
2021/05/03 09:17:29;;;;;;;12.15;9.03;;;;;;;7.49;71.70;96714.56;1807447;77;21092;-79
2021/05/03 09:20:19;;;;;;;10.03;7.60;;;;;;;7.53;72.01;96708.60;1823141;78;21291;-80
2021/05/03 09:25:36;;;;;;;7.65;6.75;;;;;;;7.51;71.13;96713.92;1800876;77;21099;-80
2021/05/03 09:28:27;;;;;;;6.80;5.42;;;;;;;7.61;71.65;96713.80;1808952;77;21078;-80
2021/05/03 09:30:59;;;;;;;8.80;7.58;;;;;;;7.68;71.70;96714.00;1798331;77;21115;-80
2021/05/03 09:33:50;;;;;;;7.45;6.47;;;;;;;7.71;71.23;96709.80;1805907;77;21146;-79
2021/05/03 09:36:18;;;;;;;8.20;6.72;;;;;;;7.71;71.04;96706.73;1759102;80;21130;-78
2021/05/03 09:38:45;;;;;;;7.42;6.62;;;;;;;7.85;70.80;96712.29;1727445;81;21255;-79
2021/05/03 09:41:25;;;;;;;8.50;7.03;;;;;;;7.98;70.40;96708.30;1758100;79;21308;-80
2021/05/03 09:44:07;;;;;;;12.07;8.65;;;;;;;8.09;70.65;96711.05;1753810;80;21093;-79
2021/05/03 09:46:45;;;;;;;9.23;7.75;;;;;;;8.16;70.08;96714.65;1763001;80;21132;-79
2021/05/03 09:49:16;;;;;;;8.35;6.95;;;;;;;8.09;69.56;96711.86;1759750;80;21117;-80
2021/05/03 09:51:48;;;;;;;8.43;6.37;;;;;;;7.99;69.17;96712.50;1756312;80;21094;-80
2021/05/03 09:54:27;;;;;;;8.38;7.58;;;;;;;7.82;69.14;96709.05;1754180;80;21082;-80
2021/05/03 09:57:10;;;;;;;7.53;5.72;;;;;;;7.82;69.14;96709.05;1756540;80;21216;-80
2021/05/03 09:59:40;;;;;;;;;;;;;;;7.76;69.32;96716.13;1762746;80;21320;-80
2021/05/03 10:02:15;;;;;;;51.98;27.65;;;;;;;7.73;69.29;96715.15;1745657;80;20113;-81
2021/05/03 10:05:07;;;;;;;49.00;28.70;;;;;;;7.67;69.02;96716.27;1736429;80;21113;-81
2021/05/03 10:07:29;;;;;;;47.00;29.12;;;;;;;7.66;70.09;96711.58;1742089;80;21131;-81
2021/05/03 10:10:18;;;;;;;26.42;20.52;;;;;;;7.69;70.40;96711.26;1796155;77;21107;-81
2021/05/03 10:12:43;;;;;;;11.28;8.98;;;;;;;7.72;69.65;96712.23;1817657;77;21060;-80
2021/05/03 10:15:12;;;;;;;8.03;6.83;;;;;;;7.72;69.58;96712.23;1796835;78;21425;-78
2021/05/03 10:17:39;;;;;;;6.47;5.87;;;;;;;7.71;69.12;96719.67;1807965;77;21066;-79
2021/05/03 10:20:13;;;;;;;6.85;4.70;;;;;;;7.71;69.29;96719.67;1804777;78;21245;-79
2021/05/03 10:22:39;;;;;;;5.35;4.67;;;;;;;7.48;69.03;96703.06;1806312;77;21151;-79
2021/05/03 10:25:13;;;;;;;5.53;4.00;;;;;;;7.49;69.00;96740.91;1802311;77;21536;-79
2021/05/03 10:27:41;;;;;;;5.08;4.17;;;;;;;7.31;69.10;96740.94;1803479;77;21095;-79
2021/05/03 10:30:20;;;;;;;5.33;4.25;;;;;;;7.14;69.30;96740.02;1807248;77;21174;-79
2021/05/03 10:33:05;;;;;;;5.62;5.05;;;;;;;7.08;69.32;96742.41;1800472;77;21128;-80
2021/05/03 10:35:34;;;;;;;6.10;4.70;;;;;;;7.13;70.10;96741.47;1804357;77;21298;-80
2021/05/03 10:38:00;;;;;;;5.90;3.92;;;;;;;7.16;70.19;96749.75;1806629;77;21057;-79
2021/05/03 10:40:37;;;;;;;6.08;4.72;;;;;;;7.18;69.49;96754.29;1810782;77;21684;-79
2021/05/03 10:43:12;;;;;;;4.97;3.92;;;;;;;7.11;69.74;96764.88;1784559;78;21322;-79
2021/05/03 10:54:44;;;;;;;7.62;5.95;;;;;;;6.79;71.15;96787.39;1801260;77;23021;-80
2021/05/03 10:57:19;;;;;;;5.60;4.62;;;;;;;6.69;71.52;96794.42;1780743;78;21492;-80
2021/05/03 10:59:53;;;;;;;18.42;12.82;;;;;;;6.62;71.90;96786.42;1743445;78;21134;-78
2021/05/03 11:02:26;;;;;;;15.88;11.40;;;;;;;6.52;71.77;96785.70;1779671;79;21080;-80
2021/05/03 11:05:26;;;;;;;20.50;13.35;;;;;;;6.35;72.09;96773.59;1780990;78;21098;-82
2021/05/03 11:08:11;;;;;;;29.80;18.73;;;;;;;6.32;72.71;96770.80;1773798;78;21278;-80
2021/05/03 11:11:07;;;;;;;19.52;12.45;;;;;;;6.41;73.49;96767.02;1776268;78;21356;-80
2021/05/03 11:13:42;;;;;;;7.95;6.17;;;;;;;6.67;74.34;96760.64;1752547;80;21110;-81
2021/05/03 11:16:32;;;;;;;7.35;6.60;;;;;;;6.98;74.17;96764.45;1751641;79;21403;-80
2021/05/03 14:32:32;;;;;;;10.93;8.15;;;;;;;8.50;64.66;96727.52;1769513;79;22913;-81
2021/05/03 14:34:51;;;;;;;9.70;8.80;;;;;;;8.45;64.93;96732.35;1725626;80;21129;-81
2021/05/03 14:37:10;;;;;;;9.03;7.70;;;;;;;8.49;65.48;96734.97;1713166;80;21356;-82
2021/05/03 14:39:36;;;;;;;8.83;7.10;;;;;;;8.69;65.54;96731.58;1749747;80;21138;-82
2021/05/03 14:42:03;;;;;;;8.88;7.28;;;;;;;8.83;64.97;96727.55;1728484;80;21341;-82
2021/05/03 14:44:29;;;;;;;6.62;5.30;;;;;;;8.91;64.79;96724.45;1754378;80;21067;-82
2021/05/03 14:46:59;;;;;;;7.92;7.12;;;;;;;9.01;64.09;96719.92;1742210;80;21086;-82
2021/05/03 14:52:10;;;;;;;6.60;5.00;;;;;;;9.10;62.83;96725.08;1745940;80;21071;-82
2021/05/03 14:54:42;;;;;;;7.42;5.58;;;;;;;9.05;63.15;96714.41;1740716;80;21097;-81
2021/05/03 14:57:11;;;;;;;8.33;6.08;;;;;;;9.04;63.40;96720.08;1738399;80;21156;-81
2021/05/03 14:59:37;;;;;;;7.80;4.87;;;;;;;9.07;63.24;96717.64;1757528;80;21146;-82
2021/05/03 15:02:03;;;;;;;7.53;5.22;;;;;;;9.35;63.63;96710.30;1762257;80;21261;-82
2021/05/03 15:04:36;;;;;;;6.20;4.83;;;;;;;9.73;64.04;96707.42;1728986;80;21232;-82
2021/05/03 15:07:12;;;;;;;6.70;4.72;;;;;;;9.94;62.57;96705.08;1748971;80;21140;-82
2021/05/03 15:09:42;;;;;;;7.45;4.97;;;;;;;10.02;61.91;96699.83;1744580;80;21276;-81
2021/05/03 15:12:14;;;;;;;9.30;5.33;;;;;;;10.02;62.29;96692.53;1738229;80;21129;-81
2021/05/03 15:15:04;;;;;;;6.92;4.58;;;;;;;9.93;61.42;96691.78;1738630;80;21121;-82
2021/05/03 15:22:44;;;;;;;6.80;5.10;;;;;;;10.08;62.65;96693.95;1751131;80;21142;-83
2021/05/03 15:25:11;;;;;;;7.08;4.97;;;;;;;10.27;60.76;96690.66;1742048;80;21189;-81
2021/05/03 15:27:49;;;;;;;8.23;5.55;;;;;;;10.32;60.60;96691.74;1729268;80;21249;-81
2021/05/03 15:35:31;;;;;;;6.53;4.40;;;;;;;10.28;59.27;96679.28;1770527;79;21424;-82
2021/05/03 15:38:06;;;;;;;7.22;5.15;;;;;;;10.15;57.27;96680.62;1765945;79;21115;-81
2021/05/03 15:40:33;;;;;;;4.90;4.22;;;;;;;9.83;57.31;96676.89;1789507;79;21121;-80